sensor_id;sensor_type;location;lat;lon;timestamp;pressure;altitude;pressure_sealevel;temperature;humidity
60371;BME280;48550;40.588;49.684;2023-04-24T00:00:06;101566.88;;;11.12;100.00
60371;BME280;48550;40.588;49.684;2023-04-24T00:02:32;101562.75;;;11.09;100.00
60371;BME280;48550;40.588;49.684;2023-04-24T00:04:58;101569.56;;;11.12;100.00
60371;BME280;48550;40.588;49.684;2023-04-24T00:07:27;101572.22;;;11.19;100.00
60371;BME280;48550;40.588;49.684;2023-04-24T00:09:53;101570.97;;;11.21;100.00
60371;BME280;48550;40.588;49.684;2023-04-24T00:12:18;101562.09;;;11.21;100.00
60371;BME280;48550;40.588;49.684;2023-04-24T00:14:44;101560.22;;;11.21;100.00
60371;BME280;48550;40.588;49.684;2023-04-24T00:17:10;101547.00;;;11.20;100.00
60371;BME280;48550;40.588;49.684;2023-04-24T00:19:35;101543.50;;;11.19;100.00
60371;BME280;48550;40.588;49.684;2023-04-24T00:22:02;101538.56;;;11.16;100.00
60371;BME280;48550;40.588;49.684;2023-04-24T00:24:28;101540.44;;;11.16;100.00
60371;BME280;48550;40.588;49.684;2023-04-24T00:26:53;101537.75;;;11.16;100.00
60371;BME280;48550;40.588;49.684;2023-04-24T00:29:19;101535.06;;;11.16;100.00
60371;BME280;48550;40.588;49.684;2023-04-24T00:31:45;101534.84;;;11.17;100.00
60371;BME280;48550;40.588;49.684;2023-04-24T00:34:11;101541.03;;;11.18;100.00
60371;BME280;48550;40.588;49.684;2023-04-24T00:36:37;101550.53;;;11.20;100.00
60371;BME280;48550;40.588;49.684;2023-04-24T00:39:03;101554.44;;;11.24;100.00
60371;BME280;48550;40.588;49.684;2023-04-24T00:41:29;101554.81;;;11.28;100.00
60371;BME280;48550;40.588;49.684;2023-04-24T00:43:55;101538.47;;;11.29;100.00
60371;BME280;48550;40.588;49.684;2023-04-24T00:46:21;101537.47;;;11.24;100.00
60371;BME280;48550;40.588;49.684;2023-04-24T00:48:47;101544.94;;;11.22;100.00
60371;BME280;48550;40.588;49.684;2023-04-24T00:51:13;101538.94;;;11.20;100.00
60371;BME280;48550;40.588;49.684;2023-04-24T00:53:39;101539.38;;;11.17;100.00
60371;BME280;48550;40.588;49.684;2023-04-24T00:56:05;101531.72;;;11.13;100.00
60371;BME280;48550;40.588;49.684;2023-04-24T00:58:31;101521.81;;;11.14;100.00
60371;BME280;48550;40.588;49.684;2023-04-24T01:00:57;101518.28;;;11.13;100.00
60371;BME280;48550;40.588;49.684;2023-04-24T01:03:29;101517.47;;;11.13;100.00
60371;BME280;48550;40.588;49.684;2023-04-24T01:05:58;101513.13;;;11.12;100.00
60371;BME280;48550;40.588;49.684;2023-04-24T01:08:26;101513.56;;;11.16;100.00
60371;BME280;48550;40.588;49.684;2023-04-24T01:10:53;101509.19;;;11.14;100.00
60371;BME280;48550;40.588;49.684;2023-04-24T01:13:20;101517.47;;;11.13;100.00
60371;BME280;48550;40.588;49.684;2023-04-24T01:15:46;101499.91;;;11.10;100.00
60371;BME280;48550;40.588;49.684;2023-04-24T01:18:12;101500.34;;;11.07;100.00
60371;BME280;48550;40.588;49.684;2023-04-24T01:20:42;101498.94;;;11.05;100.00
60371;BME280;48550;40.588;49.684;2023-04-24T01:23:09;101502.88;;;11.02;100.00
60371;BME280;48550;40.588;49.684;2023-04-24T01:25:36;101495.84;;;11.01;100.00
60371;BME280;48550;40.588;49.684;2023-04-24T01:28:03;101490.31;;;10.96;100.00
60371;BME280;48550;40.588;49.684;2023-04-24T01:30:29;101500.00;;;10.97;100.00
60371;BME280;48550;40.588;49.684;2023-04-24T01:32:55;101488.66;;;10.95;100.00
60371;BME280;48550;40.588;49.684;2023-04-24T01:35:21;101502.91;;;10.96;100.00
60371;BME280;48550;40.588;49.684;2023-04-24T01:37:46;101500.44;;;10.94;100.00
60371;BME280;48550;40.588;49.684;2023-04-24T01:40:12;101499.22;;;10.90;100.00
60371;BME280;48550;40.588;49.684;2023-04-24T01:42:38;101502.94;;;10.89;100.00
60371;BME280;48550;40.588;49.684;2023-04-24T01:45:06;101498.41;;;10.90;100.00
60371;BME280;48550;40.588;49.684;2023-04-24T01:47:33;101493.25;;;10.88;100.00
60371;BME280;48550;40.588;49.684;2023-04-24T01:49:59;101490.78;;;10.87;100.00
60371;BME280;48550;40.588;49.684;2023-04-24T01:52:25;101491.41;;;10.82;100.00
60371;BME280;48550;40.588;49.684;2023-04-24T01:54:52;101494.09;;;10.82;100.00
60371;BME280;48550;40.588;49.684;2023-04-24T01:57:18;101496.56;;;10.83;100.00
60371;BME280;48550;40.588;49.684;2023-04-24T01:59:44;101497.63;;;10.82;100.00
60371;BME280;48550;40.588;49.684;2023-04-24T02:02:10;101491.41;;;10.82;100.00
60371;BME280;48550;40.588;49.684;2023-04-24T02:04:35;101493.91;;;10.83;100.00
60371;BME280;48550;40.588;49.684;2023-04-24T02:07:01;101495.94;;;10.88;100.00
60371;BME280;48550;40.588;49.684;2023-04-24T02:09:27;101486.00;;;10.89;100.00
60371;BME280;48550;40.588;49.684;2023-04-24T02:11:53;101481.63;;;10.94;100.00
60371;BME280;48550;40.588;49.684;2023-04-24T02:14:18;101484.94;;;10.96;100.00
60371;BME280;48550;40.588;49.684;2023-04-24T02:16:44;101478.91;;;11.01;100.00
60371;BME280;48550;40.588;49.684;2023-04-24T02:19:10;101481.16;;;11.04;100.00
60371;BME280;48550;40.588;49.684;2023-04-24T02:21:36;101477.16;;;11.13;100.00
60371;BME280;48550;40.588;49.684;2023-04-24T02:24:01;101480.88;;;11.19;100.00
60371;BME280;48550;40.588;49.684;2023-04-24T02:26:27;101484.50;;;11.31;100.00
60371;BME280;48550;40.588;49.684;2023-04-24T02:28:53;101478.41;;;11.42;100.00
60371;BME280;48550;40.588;49.684;2023-04-24T02:31:18;101485.56;;;11.55;100.00
60371;BME280;48550;40.588;49.684;2023-04-24T02:33:44;101493.28;;;11.69;100.00
60371;BME280;48550;40.588;49.684;2023-04-24T02:36:10;101492.97;;;11.84;100.00
60371;BME280;48550;40.588;49.684;2023-04-24T02:38:36;101483.44;;;12.06;100.00
60371;BME280;48550;40.588;49.684;2023-04-24T02:41:01;101493.38;;;12.43;100.00
60371;BME280;48550;40.588;49.684;2023-04-24T02:43:29;101488.63;;;13.04;100.00
60371;BME280;48550;40.588;49.684;2023-04-24T02:45:55;101495.09;;;13.57;100.00
60371;BME280;48550;40.588;49.684;2023-04-24T02:48:20;101514.44;;;13.65;100.00
60371;BME280;48550;40.588;49.684;2023-04-24T02:50:46;101513.50;;;13.48;100.00
60371;BME280;48550;40.588;49.684;2023-04-24T02:53:13;101514.56;;;13.94;100.00
60371;BME280;48550;40.588;49.684;2023-04-24T02:55:38;101518.03;;;14.53;100.00
60371;BME280;48550;40.588;49.684;2023-04-24T02:58:04;101517.22;;;14.52;100.00
60371;BME280;48550;40.588;49.684;2023-04-24T03:00:31;101514.69;;;14.22;100.00
60371;BME280;48550;40.588;49.684;2023-04-24T03:02:57;101516.22;;;14.18;100.00
60371;BME280;48550;40.588;49.684;2023-04-24T03:05:22;101525.59;;;14.16;100.00
60371;BME280;48550;40.588;49.684;2023-04-24T03:07:48;101530.03;;;14.34;100.00
60371;BME280;48550;40.588;49.684;2023-04-24T03:10:14;101515.34;;;14.53;100.00
60371;BME280;48550;40.588;49.684;2023-04-24T03:12:39;101520.22;;;14.68;100.00
60371;BME280;48550;40.588;49.684;2023-04-24T03:15:06;101520.00;;;14.69;100.00
60371;BME280;48550;40.588;49.684;2023-04-24T03:17:31;101520.91;;;14.86;100.00
60371;BME280;48550;40.588;49.684;2023-04-24T03:19:58;101510.53;;;14.83;100.00
60371;BME280;48550;40.588;49.684;2023-04-24T03:22:23;101508.91;;;14.82;100.00
60371;BME280;48550;40.588;49.684;2023-04-24T03:24:49;101505.72;;;14.85;100.00
60371;BME280;48550;40.588;49.684;2023-04-24T03:27:15;101500.31;;;14.85;100.00
60371;BME280;48550;40.588;49.684;2023-04-24T03:29:40;101501.28;;;14.79;100.00
60371;BME280;48550;40.588;49.684;2023-04-24T03:32:06;101503.00;;;14.85;100.00
60371;BME280;48550;40.588;49.684;2023-04-24T03:34:32;101508.91;;;14.82;100.00
60371;BME280;48550;40.588;49.684;2023-04-24T03:36:57;101500.22;;;14.80;100.00
60371;BME280;48550;40.588;49.684;2023-04-24T03:39:23;101505.13;;;14.83;100.00
60371;BME280;48550;40.588;49.684;2023-04-24T03:41:50;101504.03;;;14.96;100.00
60371;BME280;48550;40.588;49.684;2023-04-24T03:44:16;101505.00;;;14.90;100.00
60371;BME280;48550;40.588;49.684;2023-04-24T03:46:41;101499.63;;;14.78;100.00
60371;BME280;48550;40.588;49.684;2023-04-24T03:49:07;101498.56;;;14.79;100.00
60371;BME280;48550;40.588;49.684;2023-04-24T03:51:33;101499.28;;;14.86;100.00
60371;BME280;48550;40.588;49.684;2023-04-24T03:53:58;101499.94;;;14.93;100.00
60371;BME280;48550;40.588;49.684;2023-04-24T03:56:24;101494.31;;;15.12;100.00
60371;BME280;48550;40.588;49.684;2023-04-24T03:58:50;101499.91;;;15.22;100.00
60371;BME280;48550;40.588;49.684;2023-04-24T04:01:16;101501.47;;;15.51;100.00
60371;BME280;48550;40.588;49.684;2023-04-24T04:03:41;101501.91;;;15.77;100.00
60371;BME280;48550;40.588;49.684;2023-04-24T04:06:07;101506.53;;;16.15;100.00
60371;BME280;48550;40.588;49.684;2023-04-24T04:08:33;101508.09;;;16.33;100.00
60371;BME280;48550;40.588;49.684;2023-04-24T04:10:58;101507.44;;;16.42;100.00
60371;BME280;48550;40.588;49.684;2023-04-24T04:13:24;101508.75;;;16.40;100.00
60371;BME280;48550;40.588;49.684;2023-04-24T04:15:50;101510.75;;;16.28;100.00
60371;BME280;48550;40.588;49.684;2023-04-24T04:18:16;101519.47;;;16.51;100.00
60371;BME280;48550;40.588;49.684;2023-04-24T04:20:43;101520.16;;;16.86;100.00
60371;BME280;48550;40.588;49.684;2023-04-24T04:23:09;101502.00;;;16.86;100.00
60371;BME280;48550;40.588;49.684;2023-04-24T04:25:35;101493.19;;;17.01;100.00
60371;BME280;48550;40.588;49.684;2023-04-24T04:28:00;101501.81;;;16.93;100.00
60371;BME280;48550;40.588;49.684;2023-04-24T04:30:27;101499.91;;;16.93;100.00
60371;BME280;48550;40.588;49.684;2023-04-24T04:32:54;101498.38;;;16.75;100.00
60371;BME280;48550;40.588;49.684;2023-04-24T04:35:20;101481.94;;;16.87;100.00
60371;BME280;48550;40.588;49.684;2023-04-24T04:37:46;101479.53;;;16.91;100.00
60371;BME280;48550;40.588;49.684;2023-04-24T04:40:11;101481.16;;;17.13;97.32
60371;BME280;48550;40.588;49.684;2023-04-24T04:42:37;101482.19;;;17.39;98.68
60371;BME280;48550;40.588;49.684;2023-04-24T04:45:08;101478.41;;;17.45;98.44
60371;BME280;48550;40.588;49.684;2023-04-24T04:47:38;101468.09;;;17.79;99.99
60371;BME280;48550;40.588;49.684;2023-04-24T04:50:05;101462.31;;;18.13;87.23
60371;BME280;48550;40.588;49.684;2023-04-24T04:52:31;101452.50;;;19.86;74.60
60371;BME280;48550;40.588;49.684;2023-04-24T04:54:57;101444.19;;;21.20;57.13
60371;BME280;48550;40.588;49.684;2023-04-24T04:57:22;101445.19;;;21.01;54.25
60371;BME280;48550;40.588;49.684;2023-04-24T04:59:48;101458.91;;;21.59;49.79
60371;BME280;48550;40.588;49.684;2023-04-24T05:02:14;101459.53;;;22.70;48.71
60371;BME280;48550;40.588;49.684;2023-04-24T05:04:40;101461.69;;;23.43;42.68
60371;BME280;48550;40.588;49.684;2023-04-24T05:07:05;101465.63;;;23.69;44.87
60371;BME280;48550;40.588;49.684;2023-04-24T05:09:31;101454.59;;;24.29;41.95
60371;BME280;48550;40.588;49.684;2023-04-24T05:11:57;101454.16;;;24.22;39.66
60371;BME280;48550;40.588;49.684;2023-04-24T05:14:23;101460.06;;;24.16;39.83
60371;BME280;48550;40.588;49.684;2023-04-24T05:16:48;101462.97;;;24.74;40.43
60371;BME280;48550;40.588;49.684;2023-04-24T05:19:14;101461.03;;;25.33;38.00
60371;BME280;48550;40.588;49.684;2023-04-24T05:21:42;101458.50;;;24.64;39.20
60371;BME280;48550;40.588;49.684;2023-04-24T05:24:08;101464.31;;;25.21;34.69
60371;BME280;48550;40.588;49.684;2023-04-24T05:26:34;101464.03;;;24.37;36.57
60371;BME280;48550;40.588;49.684;2023-04-24T05:29:01;101457.94;;;24.40;37.18
60371;BME280;48550;40.588;49.684;2023-04-24T05:31:27;101456.22;;;24.80;36.90
60371;BME280;48550;40.588;49.684;2023-04-24T05:33:53;101459.59;;;24.77;37.10
60371;BME280;48550;40.588;49.684;2023-04-24T05:36:18;101458.50;;;25.23;34.90
60371;BME280;48550;40.588;49.684;2023-04-24T05:38:44;101454.59;;;24.16;37.36
60371;BME280;48550;40.588;49.684;2023-04-24T05:41:10;101463.28;;;23.63;37.68
60371;BME280;48550;40.588;49.684;2023-04-24T05:43:36;101454.94;;;22.46;41.18
60371;BME280;48550;40.588;49.684;2023-04-24T05:46:02;101460.88;;;23.89;39.48
60371;BME280;48550;40.588;49.684;2023-04-24T05:48:27;101460.13;;;23.56;39.75
60371;BME280;48550;40.588;49.684;2023-04-24T05:50:53;101453.94;;;24.96;38.75
60371;BME280;48550;40.588;49.684;2023-04-24T05:53:19;101456.72;;;24.82;36.64
60371;BME280;48550;40.588;49.684;2023-04-24T05:55:45;101449.50;;;24.36;38.13
60371;BME280;48550;40.588;49.684;2023-04-24T05:58:11;101449.44;;;23.22;40.48
60371;BME280;48550;40.588;49.684;2023-04-24T06:00:37;101456.56;;;22.47;41.36
60371;BME280;48550;40.588;49.684;2023-04-24T06:03:05;101451.97;;;22.62;41.11
60371;BME280;48550;40.588;49.684;2023-04-24T06:05:31;101451.59;;;23.71;38.98
60371;BME280;48550;40.588;49.684;2023-04-24T06:07:57;101451.00;;;24.43;38.78
60371;BME280;48550;40.588;49.684;2023-04-24T06:10:22;101459.66;;;24.08;39.03
60371;BME280;48550;40.588;49.684;2023-04-24T06:12:48;101453.88;;;24.10;38.24
60371;BME280;48550;40.588;49.684;2023-04-24T06:15:14;101445.81;;;24.91;37.46
60371;BME280;48550;40.588;49.684;2023-04-24T06:17:39;101450.50;;;25.57;36.38
60371;BME280;48550;40.588;49.684;2023-04-24T06:20:06;101453.50;;;26.09;35.59
60371;BME280;48550;40.588;49.684;2023-04-24T06:22:33;101454.91;;;26.46;34.38
60371;BME280;48550;40.588;49.684;2023-04-24T06:24:59;101455.25;;;26.97;33.83
60371;BME280;48550;40.588;49.684;2023-04-24T06:27:25;101447.78;;;27.32;34.82
60371;BME280;48550;40.588;49.684;2023-04-24T06:29:51;101432.59;;;26.82;34.79
60371;BME280;48550;40.588;49.684;2023-04-24T06:32:22;101431.09;;;26.42;35.87
60371;BME280;48550;40.588;49.684;2023-04-24T06:34:48;101418.31;;;26.72;35.43
60371;BME280;48550;40.588;49.684;2023-04-24T06:37:14;101420.91;;;27.75;33.95
60371;BME280;48550;40.588;49.684;2023-04-24T06:39:40;101414.31;;;27.97;33.02
60371;BME280;48550;40.588;49.684;2023-04-24T06:42:06;101414.00;;;27.90;33.88
60371;BME280;48550;40.588;49.684;2023-04-24T06:44:33;101407.13;;;27.11;34.52
60371;BME280;48550;40.588;49.684;2023-04-24T06:47:03;101408.28;;;27.66;33.88
60371;BME280;48550;40.588;49.684;2023-04-24T06:49:28;101389.09;;;26.19;35.49
60371;BME280;48550;40.588;49.684;2023-04-24T06:51:54;101409.75;;;26.82;35.28
60371;BME280;48550;40.588;49.684;2023-04-24T06:54:20;101390.78;;;26.98;35.11
60371;BME280;48550;40.588;49.684;2023-04-24T06:56:46;101386.84;;;26.29;36.91
60371;BME280;48550;40.588;49.684;2023-04-24T06:59:13;101386.13;;;25.98;37.30
60371;BME280;48550;40.588;49.684;2023-04-24T07:01:38;101390.44;;;25.20;40.15
60371;BME280;48550;40.588;49.684;2023-04-24T07:04:04;101394.41;;;25.05;41.98
60371;BME280;48550;40.588;49.684;2023-04-24T07:06:30;101390.88;;;24.32;41.83
60371;BME280;48550;40.588;49.684;2023-04-24T07:08:55;101385.22;;;24.65;42.58
60371;BME280;48550;40.588;49.684;2023-04-24T07:11:21;101382.22;;;24.25;42.80
60371;BME280;48550;40.588;49.684;2023-04-24T07:13:47;101377.44;;;23.21;45.63
60371;BME280;48550;40.588;49.684;2023-04-24T07:16:13;101382.22;;;23.43;43.13
60371;BME280;48550;40.588;49.684;2023-04-24T07:18:38;101372.66;;;23.87;41.95
60371;BME280;48550;40.588;49.684;2023-04-24T07:21:05;101375.00;;;23.80;41.11
60371;BME280;48550;40.588;49.684;2023-04-24T07:23:31;101375.59;;;23.17;45.38
60371;BME280;48550;40.588;49.684;2023-04-24T07:25:57;101376.84;;;23.38;46.50
60371;BME280;48550;40.588;49.684;2023-04-24T07:28:23;101371.19;;;24.30;41.18
60371;BME280;48550;40.588;49.684;2023-04-24T07:30:48;101358.00;;;24.05;40.09
60371;BME280;48550;40.588;49.684;2023-04-24T07:33:14;101356.22;;;24.36;40.04
60371;BME280;48550;40.588;49.684;2023-04-24T07:35:40;101353.78;;;23.85;37.25
60371;BME280;48550;40.588;49.684;2023-04-24T07:38:05;101355.00;;;23.19;39.12
60371;BME280;48550;40.588;49.684;2023-04-24T07:40:31;101347.00;;;22.39;41.02
60371;BME280;48550;40.588;49.684;2023-04-24T07:42:57;101343.66;;;21.80;42.21
60371;BME280;48550;40.588;49.684;2023-04-24T07:45:23;101337.78;;;21.68;42.73
60371;BME280;48550;40.588;49.684;2023-04-24T07:47:51;101327.72;;;21.40;42.90
60371;BME280;48550;40.588;49.684;2023-04-24T07:50:17;101325.38;;;21.52;40.79
60371;BME280;48550;40.588;49.684;2023-04-24T07:52:43;101310.28;;;21.36;43.12
60371;BME280;48550;40.588;49.684;2023-04-24T07:55:08;101310.41;;;20.97;42.97
60371;BME280;48550;40.588;49.684;2023-04-24T07:57:34;101304.81;;;20.78;44.67
60371;BME280;48550;40.588;49.684;2023-04-24T08:00:00;101300.00;;;20.99;42.68
60371;BME280;48550;40.588;49.684;2023-04-24T08:02:26;101295.06;;;21.30;44.14
60371;BME280;48550;40.588;49.684;2023-04-24T08:04:52;101289.97;;;20.94;45.58
60371;BME280;48550;40.588;49.684;2023-04-24T08:07:21;101301.28;;;20.77;46.38
60371;BME280;48550;40.588;49.684;2023-04-24T08:09:47;101288.19;;;20.45;48.20
60371;BME280;48550;40.588;49.684;2023-04-24T08:12:13;101283.47;;;20.17;55.17
60371;BME280;48550;40.588;49.684;2023-04-24T08:14:38;101281.50;;;20.22;55.71
60371;BME280;48550;40.588;49.684;2023-04-24T08:17:04;101292.75;;;20.11;64.36
60371;BME280;48550;40.588;49.684;2023-04-24T08:19:30;101282.81;;;20.30;66.89
60371;BME280;48550;40.588;49.684;2023-04-24T08:21:56;101274.38;;;20.26;60.47
60371;BME280;48550;40.588;49.684;2023-04-24T08:24:22;101282.78;;;19.91;63.12
60371;BME280;48550;40.588;49.684;2023-04-24T08:26:47;101283.16;;;19.69;64.95
60371;BME280;48550;40.588;49.684;2023-04-24T08:29:17;101273.50;;;19.12;86.02
60371;BME280;48550;40.588;49.684;2023-04-24T08:31:43;101276.72;;;19.29;92.35
60371;BME280;48550;40.588;49.684;2023-04-24T08:34:09;101264.88;;;19.75;79.12
60371;BME280;48550;40.588;49.684;2023-04-24T08:36:36;101266.72;;;19.89;74.33
60371;BME280;48550;40.588;49.684;2023-04-24T08:39:02;101259.41;;;20.24;67.15
60371;BME280;48550;40.588;49.684;2023-04-24T08:41:28;101253.75;;;20.15;63.91
60371;BME280;48550;40.588;49.684;2023-04-24T08:43:54;101252.50;;;20.42;65.44
60371;BME280;48550;40.588;49.684;2023-04-24T08:46:24;101252.13;;;20.14;69.36
60371;BME280;48550;40.588;49.684;2023-04-24T08:48:52;101254.13;;;20.38;69.32
60371;BME280;48550;40.588;49.684;2023-04-24T08:51:19;101246.47;;;20.45;72.85
60371;BME280;48550;40.588;49.684;2023-04-24T08:53:46;101242.09;;;20.10;76.10
60371;BME280;48550;40.588;49.684;2023-04-24T08:56:12;101235.31;;;20.41;76.07
60371;BME280;48550;40.588;49.684;2023-04-24T08:58:39;101232.91;;;20.35;69.26
60371;BME280;48550;40.588;49.684;2023-04-24T09:01:05;101236.28;;;20.21;73.54
60371;BME280;48550;40.588;49.684;2023-04-24T09:03:31;101229.31;;;20.00;78.17
60371;BME280;48550;40.588;49.684;2023-04-24T09:05:58;101236.28;;;20.21;78.09
60371;BME280;48550;40.588;49.684;2023-04-24T09:08:26;101218.22;;;20.30;77.09
60371;BME280;48550;40.588;49.684;2023-04-24T09:10:53;101211.69;;;21.37;67.50
60371;BME280;48550;40.588;49.684;2023-04-24T09:13:22;101211.88;;;22.21;58.72
60371;BME280;48550;40.588;49.684;2023-04-24T09:15:48;101221.66;;;22.73;56.43
60371;BME280;48550;40.588;49.684;2023-04-24T09:18:14;101205.13;;;22.65;56.74
60371;BME280;48550;40.588;49.684;2023-04-24T09:21:00;101209.88;;;22.27;58.77
60371;BME280;48550;40.588;49.684;2023-04-24T09:23:27;101185.38;;;22.03;61.64
60371;BME280;48550;40.588;49.684;2023-04-24T09:25:57;101183.47;;;21.84;64.65
60371;BME280;48550;40.588;49.684;2023-04-24T09:28:40;101183.16;;;21.48;66.40
60371;BME280;48550;40.588;49.684;2023-04-24T09:31:13;101174.34;;;21.51;69.21
60371;BME280;48550;40.588;49.684;2023-04-24T09:33:40;101168.25;;;21.17;69.99
60371;BME280;48550;40.588;49.684;2023-04-24T09:36:06;101184.69;;;21.36;69.42
60371;BME280;48550;40.588;49.684;2023-04-24T09:38:38;101173.72;;;21.60;69.83
60371;BME280;48550;40.588;49.684;2023-04-24T09:41:08;101169.97;;;21.74;65.65
60371;BME280;48550;40.588;49.684;2023-04-24T09:43:38;101166.69;;;22.10;63.44
60371;BME280;48550;40.588;49.684;2023-04-24T09:46:08;101168.81;;;22.32;64.93
60371;BME280;48550;40.588;49.684;2023-04-24T09:48:37;101165.06;;;22.41;56.79
60371;BME280;48550;40.588;49.684;2023-04-24T09:51:06;101157.53;;;22.93;56.76
60371;BME280;48550;40.588;49.684;2023-04-24T09:53:35;101156.00;;;23.28;54.93
60371;BME280;48550;40.588;49.684;2023-04-24T09:56:09;101155.84;;;23.47;55.08
60371;BME280;48550;40.588;49.684;2023-04-24T09:58:36;101152.66;;;24.03;46.39
60371;BME280;48550;40.588;49.684;2023-04-24T10:01:02;101147.13;;;24.48;44.58
60371;BME280;48550;40.588;49.684;2023-04-24T10:03:34;101144.88;;;24.81;42.79
60371;BME280;48550;40.588;49.684;2023-04-24T10:06:01;101146.59;;;25.08;42.14
60371;BME280;48550;40.588;49.684;2023-04-24T10:08:33;101135.00;;;25.28;42.42
60371;BME280;48550;40.588;49.684;2023-04-24T10:10:59;101143.09;;;25.42;40.51
60371;BME280;48550;40.588;49.684;2023-04-24T10:13:26;101136.16;;;25.45;40.64
60371;BME280;48550;40.588;49.684;2023-04-24T10:15:53;101128.41;;;25.55;40.25
60371;BME280;48550;40.588;49.684;2023-04-24T10:18:20;101126.97;;;25.67;39.75
60371;BME280;48550;40.588;49.684;2023-04-24T10:20:47;101123.91;;;25.68;39.92
60371;BME280;48550;40.588;49.684;2023-04-24T10:23:13;101117.72;;;25.62;39.27
60371;BME280;48550;40.588;49.684;2023-04-24T10:25:38;101114.50;;;25.69;39.69
60371;BME280;48550;40.588;49.684;2023-04-24T10:28:05;101112.88;;;25.77;39.56
60371;BME280;48550;40.588;49.684;2023-04-24T10:30:32;101103.19;;;25.79;38.87
60371;BME280;48550;40.588;49.684;2023-04-24T10:33:06;101101.22;;;25.88;39.71
60371;BME280;48550;40.588;49.684;2023-04-24T10:35:36;101098.13;;;25.98;38.63
60371;BME280;48550;40.588;49.684;2023-04-24T10:38:06;101094.91;;;25.96;38.82
60371;BME280;48550;40.588;49.684;2023-04-24T10:40:35;101085.50;;;25.97;38.65
60371;BME280;48550;40.588;49.684;2023-04-24T10:43:05;101090.06;;;26.02;39.06
60371;BME280;48550;40.588;49.684;2023-04-24T10:45:33;101084.91;;;25.83;38.83
60371;BME280;48550;40.588;49.684;2023-04-24T10:48:04;101076.34;;;25.76;39.21
60371;BME280;48550;40.588;49.684;2023-04-24T10:53:16;101069.19;;;26.01;38.89
60371;BME280;48550;40.588;49.684;2023-04-24T10:55:43;101059.94;;;26.14;39.10
60371;BME280;48550;40.588;49.684;2023-04-24T10:58:10;101049.22;;;26.21;38.73
60371;BME280;48550;40.588;49.684;2023-04-24T11:00:37;101045.22;;;26.10;38.58
60371;BME280;48550;40.588;49.684;2023-04-24T11:03:30;101046.31;;;26.18;38.60
60371;BME280;48550;40.588;49.684;2023-04-24T11:06:06;101037.72;;;26.19;38.79
60371;BME280;48550;40.588;49.684;2023-04-24T11:08:44;101033.06;;;26.11;38.33
60371;BME280;48550;40.588;49.684;2023-04-24T11:11:15;101038.28;;;25.95;38.39
60371;BME280;48550;40.588;49.684;2023-04-24T11:29:46;101000.44;;;26.31;37.60
60371;BME280;48550;40.588;49.684;2023-04-24T11:32:16;100995.63;;;26.27;37.39
60371;BME280;48550;40.588;49.684;2023-04-24T11:34:52;100992.28;;;26.13;37.94
60371;BME280;48550;40.588;49.684;2023-04-24T11:37:18;100991.66;;;26.08;37.83
60371;BME280;48550;40.588;49.684;2023-04-24T11:39:44;100979.91;;;25.90;37.66
60371;BME280;48550;40.588;49.684;2023-04-24T11:42:09;100973.88;;;25.96;38.28
60371;BME280;48550;40.588;49.684;2023-04-24T11:44:35;100977.63;;;25.92;38.44
60371;BME280;48550;40.588;49.684;2023-04-24T11:47:05;100966.44;;;26.06;38.48
60371;BME280;48550;40.588;49.684;2023-04-24T11:49:32;100964.03;;;25.95;38.09
60371;BME280;48550;40.588;49.684;2023-04-24T11:52:00;100963.53;;;26.02;38.02
60371;BME280;48550;40.588;49.684;2023-04-24T11:54:26;100953.97;;;26.00;38.42
60371;BME280;48550;40.588;49.684;2023-04-24T11:56:52;100964.81;;;26.05;38.64
60371;BME280;48550;40.588;49.684;2023-04-24T11:59:18;100959.66;;;26.03;39.03
60371;BME280;48550;40.588;49.684;2023-04-24T12:01:47;100952.25;;;25.86;38.64
60371;BME280;48550;40.588;49.684;2023-04-24T12:04:15;100936.78;;;25.64;39.36
60371;BME280;48550;40.588;49.684;2023-04-24T12:07:02;100946.34;;;25.58;38.90
60371;BME280;48550;40.588;49.684;2023-04-24T12:09:28;100946.81;;;25.60;39.29
60371;BME280;48550;40.588;49.684;2023-04-24T12:11:55;100940.50;;;25.69;39.24
60371;BME280;48550;40.588;49.684;2023-04-24T12:14:22;100948.72;;;25.77;39.71
60371;BME280;48550;40.588;49.684;2023-04-24T12:16:51;100935.66;;;25.74;40.06
60371;BME280;48550;40.588;49.684;2023-04-24T12:19:21;100943.56;;;25.76;40.15
60371;BME280;48550;40.588;49.684;2023-04-24T12:22:05;100948.75;;;25.69;40.25
60371;BME280;48550;40.588;49.684;2023-04-24T12:24:31;100947.44;;;25.75;40.07
60371;BME280;48550;40.588;49.684;2023-04-24T12:26:58;100950.53;;;25.64;39.84
60371;BME280;48550;40.588;49.684;2023-04-24T12:29:24;100946.53;;;25.53;39.88
60371;BME280;48550;40.588;49.684;2023-04-24T12:31:51;100940.38;;;25.56;40.35
60371;BME280;48550;40.588;49.684;2023-04-24T12:34:25;100935.81;;;25.60;40.82
60371;BME280;48550;40.588;49.684;2023-04-24T12:36:51;100932.59;;;25.58;41.51
60371;BME280;48550;40.588;49.684;2023-04-24T12:39:18;100928.44;;;25.44;41.79
60371;BME280;48550;40.588;49.684;2023-04-24T12:42:11;100931.03;;;25.40;42.63
60371;BME280;48550;40.588;49.684;2023-04-24T12:44:37;100926.53;;;25.27;43.10
60371;BME280;48550;40.588;49.684;2023-04-24T12:47:03;100920.06;;;25.31;43.14
60371;BME280;48550;40.588;49.684;2023-04-24T12:49:32;100922.00;;;25.31;43.02
60371;BME280;48550;40.588;49.684;2023-04-24T12:51:58;100932.34;;;25.34;42.23